KMMT/MMT METAR and TAF weather

Enter ICAO airport designator
Station Type Date Time Source
KMMT METAR 2021/08/04 16:56 UTC NOAA

KMMT 041656Z 01005KT 10SM BKN020 BKN027 25/20 A3002 RMK AO2A SLP167 T02500196 $


Station Type Date Time Source
KMMT Decoded METAR 2021/08/04 16:56 UTC NOAA

McEntire Air National Guard Weather Facility Base, SC, United States (KMMT) 33-55N 080-48W
Aug 04, 2021 - 12:56 PM EDT / 2021.08.04 1656 UTC
Wind: from the N (010 degrees) at 6 MPH (5 KT):0
Visibility: 10 mile(s):0
Sky conditions: mostly cloudy
Temperature: 77.0 F (25.0 C)
Dew Point: 67.3 F (19.6 C)
Relative Humidity: 71%
Pressure (altimeter): 30.02 in. Hg (1016 hPa)
ob: KMMT 041656Z 01005KT 10SM BKN020 BKN027 25/20 A3002 RMK AO2A SLP167 T02500196
cycle: 17

Station Type Date Time Source
KMMT TAF 2021/08/04 15:06 UTC NOAA

TAF TAF KMMT 041500Z 0415/0521 03012KT 9999 BKN015 OVC025 QNH3002INS
BECMG 0416/0417 02012KT 9999 VCSH BKN035 QNH3000INS
BECMG 0423/0424 03006KT 9999 NSW FEW015 BKN045 QNH3002INS
BECMG 0508/0509 VRB06KT 8000 BR FEW015 BKN045 QNH3006INS
BECMG 0511/0512 04009KT 9999 NSW BKN045 QNH3008INS TX24/0420Z TN20/0511Z

Example: see airport list